Time;durP1;ratioP1;P1;durP2;ratioP2;P2;SDS_P1;SDS_P2;PMS_P1;PMS_P2;Temp;Humidity;BMP_temperature;BMP_pressure;BME280_temperature;BME280_humidity;BME280_pressure;Samples;Min_cycle;Max_cycle;Signal;HPM_P1;HPM_P2
2021/05/04 00:01:46;;;;;;;5.13;1.17;;;11.10;81.50;;;;;;5095940;28;20375;-75
2021/05/04 00:04:12;;;;;;;4.63;1.30;;;11.10;81.70;;;;;;5076779;28;20088;-74
2021/05/04 00:06:38;;;;;;;3.15;1.65;;;11.00;81.80;;;;;;5095308;28;20016;-74
2021/05/04 00:09:04;;;;;;;4.47;1.27;;;11.00;86.10;;;;;;5094759;28;20027;-75
2021/05/04 00:11:30;;;;;;;3.20;1.10;;;10.80;87.70;;;;;;5077415;28;20024;-75
2021/05/04 00:13:55;;;;;;;2.67;0.90;;;10.80;92.30;;;;;;5095384;28;20028;-75
2021/05/04 00:16:21;;;;;;;6.40;1.65;;;10.70;93.00;;;;;;5095227;28;20016;-75
2021/05/04 00:18:50;;;;;;;4.72;2.22;;;10.70;97.10;;;;;;5076961;28;20074;-75
2021/05/04 00:21:15;;;;;;;4.03;0.98;;;10.60;99.70;;;;;;5094736;28;20024;-75
2021/05/04 00:23:41;;;;;;;4.25;1.15;;;10.60;99.90;;;;;;5095425;28;20081;-74
2021/05/04 00:26:11;;;;;;;2.20;1.25;;;10.50;99.90;;;;;;5095091;28;20073;-75
2021/05/04 00:28:37;;;;;;;11.93;1.38;;;10.40;99.90;;;;;;5076889;28;20463;-74
2021/05/04 00:31:03;;;;;;;3.20;1.58;;;10.30;99.90;;;;;;5076240;28;20028;-75
2021/05/04 00:33:28;;;;;;;8.88;2.00;;;10.20;99.90;;;;;;5095572;28;20052;-75
2021/05/04 00:35:55;;;;;;;12.07;1.50;;;10.20;99.90;;;;;;5094740;28;20027;-74
2021/05/04 00:38:21;;;;;;;2.35;1.15;;;11.50;99.90;;;;;;5094876;28;20357;-73
2021/05/04 00:40:47;;;;;;;3.25;1.17;;;10.00;99.90;;;;;;5094490;28;20023;-74
2021/05/04 00:43:13;;;;;;;5.10;1.60;;;10.00;99.90;;;;;;5094617;28;20024;-73
2021/05/04 00:45:38;;;;;;;3.10;1.50;;;9.90;99.90;;;;;;5094906;28;20027;-74
2021/05/04 00:48:04;;;;;;;2.05;1.15;;;9.80;99.90;;;;;;5076411;28;20036;-75
2021/05/04 00:50:30;;;;;;;1.85;0.90;;;9.80;99.90;;;;;;5040269;23;20414;-74
2021/05/04 00:52:56;;;;;;;3.40;1.20;;;9.70;99.90;;;;;;5020878;28;20031;-76
2021/05/04 00:55:22;;;;;;;5.78;1.52;;;9.60;99.90;;;;;;5054130;28;20402;-74
2021/05/04 00:57:49;;;;;;;3.53;1.50;;;9.60;99.90;;;;;;5054208;28;20024;-74
2021/05/04 01:00:15;;;;;;;5.80;1.20;;;9.60;99.90;;;;;;5052964;28;20024;-73
2021/05/04 01:02:43;;;;;;;3.72;1.80;;;9.50;99.90;;;;;;5052650;28;20032;-74
2021/05/04 01:05:09;;;;;;;5.32;1.20;;;9.40;99.90;;;;;;5054143;28;20017;-73
2021/05/04 01:07:36;;;;;;;6.15;1.20;;;9.40;99.90;;;;;;5054198;28;20025;-73
2021/05/04 01:10:02;;;;;;;6.82;1.42;;;9.30;99.90;;;;;;5052802;28;20100;-73
2021/05/04 01:12:28;;;;;;;4.30;1.85;;;9.30;99.90;;;;;;5052982;23;20045;-74
2021/05/04 01:14:53;;;;;;;3.42;1.27;;;9.30;99.90;;;;;;5033979;28;20501;-74
2021/05/04 01:17:19;;;;;;;12.15;2.20;;;9.20;99.90;;;;;;5033770;28;20037;-74
2021/05/04 01:19:45;;;;;;;5.25;1.35;;;9.20;99.90;;;;;;5053696;28;20029;-74
2021/05/04 01:22:10;;;;;;;4.75;2.03;;;9.20;99.90;;;;;;5035522;28;20462;-75
2021/05/04 01:24:37;;;;;;;4.50;1.25;;;9.20;99.90;;;;;;5053985;28;20424;-76
2021/05/04 01:27:02;;;;;;;4.38;1.15;;;9.00;99.90;;;;;;5036486;28;20548;-77
2021/05/04 01:29:28;;;;;;;6.45;1.10;;;9.00;99.90;;;;;;5053614;28;20052;-76
2021/05/04 01:31:54;;;;;;;4.20;1.45;;;8.90;99.90;;;;;;5053984;28;20021;-73
2021/05/04 01:34:21;;;;;;;4.03;1.48;;;8.90;99.90;;;;;;5053472;28;20040;-76
2021/05/04 01:36:47;;;;;;;6.25;1.88;;;8.90;99.90;;;;;;5053714;28;20033;-74
2021/05/04 01:39:13;;;;;;;11.63;2.05;;;8.90;99.90;;;;;;5035333;28;20078;-74
2021/05/04 01:41:38;;;;;;;3.90;1.50;;;8.80;99.90;;;;;;5053531;28;20025;-73
2021/05/04 01:44:06;;;;;;;3.22;1.98;;;8.90;99.90;;;;;;5035317;28;20020;-74
2021/05/04 01:46:32;;;;;;;4.10;1.80;;;8.90;99.90;;;;;;5054028;28;20025;-74
2021/05/04 01:49:06;;;;;;;8.30;1.85;;;8.80;99.90;;;;;;5053549;28;20017;-74
2021/05/04 01:51:33;;;;;;;5.30;2.42;;;8.90;99.90;;;;;;5053199;28;20025;-74
2021/05/04 01:53:59;;;;;;;5.22;1.70;;;8.90;99.90;;;;;;5053417;28;20025;-74
2021/05/04 01:56:24;;;;;;;2.88;1.58;;;8.80;99.90;;;;;;5053320;28;20555;-74
2021/05/04 01:58:50;;;;;;;2.33;1.17;;;8.90;99.90;;;;;;5052921;28;20047;-74
2021/05/04 02:01:16;;;;;;;2.25;1.50;;;8.80;99.90;;;;;;5051394;28;20470;-74
2021/05/04 02:03:42;;;;;;;4.13;1.40;;;8.80;99.90;;;;;;5053058;28;20025;-74
2021/05/04 02:06:08;;;;;;;3.58;1.33;;;8.80;99.90;;;;;;5031885;28;20025;-74
2021/05/04 02:08:34;;;;;;;1.80;1.30;;;8.70;99.90;;;;;;5035316;28;20363;-74
2021/05/04 02:10:59;;;;;;;4.97;1.55;;;8.70;99.90;;;;;;5053623;28;20477;-74
2021/05/04 02:13:25;;;;;;;1.27;1.17;;;8.80;99.90;;;;;;5040344;28;20406;-75
2021/05/04 02:15:51;;;;;;;1.70;1.17;;;8.80;99.90;;;;;;5032697;28;20538;-74
2021/05/04 02:18:17;;;;;;;4.20;1.20;;;8.70;99.90;;;;;;5034714;28;20082;-74
2021/05/04 02:20:43;;;;;;;2.97;1.48;;;8.70;99.90;;;;;;5033089;28;20053;-74
2021/05/04 02:23:09;;;;;;;3.30;1.17;;;8.70;99.90;;;;;;5086366;23;20093;-75
2021/05/04 02:25:34;;;;;;;2.72;0.95;;;8.70;99.90;;;;;;5075068;28;20089;-74
2021/05/04 02:28:00;;;;;;;2.28;1.10;;;8.70;99.90;;;;;;5094151;28;20063;-75
2021/05/04 02:30:26;;;;;;;3.20;0.85;;;8.70;99.90;;;;;;5102575;22;20032;-74
2021/05/04 02:32:51;;;;;;;3.20;0.90;;;8.70;99.90;;;;;;5097035;28;20046;-74
2021/05/04 02:35:17;;;;;;;0.98;0.70;;;8.60;99.90;;;;;;5096480;28;20089;-74
2021/05/04 02:37:42;;;;;;;6.18;1.55;;;8.70;99.90;;;;;;5096932;28;20362;-74
2021/05/04 02:40:09;;;;;;;2.78;1.33;;;8.60;99.90;;;;;;5097237;28;20052;-74
2021/05/04 02:42:34;;;;;;;1.67;0.50;;;8.60;99.90;;;;;;5079057;28;20074;-74
2021/05/04 02:45:00;;;;;;;2.33;0.63;;;8.60;99.90;;;;;;5096904;28;20472;-73
2021/05/04 02:47:25;;;;;;;3.25;0.93;;;8.60;99.90;;;;;;5078478;28;20064;-74
2021/05/04 02:49:51;;;;;;;3.47;1.13;;;8.60;99.90;;;;;;5096903;28;20016;-74
2021/05/04 02:52:16;;;;;;;5.70;1.25;;;8.50;99.90;;;;;;5097000;28;20023;-73
2021/05/04 02:54:42;;;;;;;6.05;1.40;;;8.50;99.90;;;;;;5097290;28;20024;-73
2021/05/04 02:57:08;;;;;;;3.15;0.90;;;8.50;99.90;;;;;;5096776;28;20392;-73
2021/05/04 02:59:33;;;;;;;2.35;0.90;;;8.50;99.90;;;;;;5096788;28;20024;-73
2021/05/04 03:02:00;;;;;;;1.75;1.00;;;8.50;99.90;;;;;;5098557;22;20409;-74
2021/05/04 03:04:26;;;;;;;3.42;0.73;;;8.50;99.90;;;;;;5076339;28;20500;-73
2021/05/04 03:06:51;;;;;;;2.08;1.08;;;8.50;99.90;;;;;;5075433;28;20104;-74
2021/05/04 03:09:17;;;;;;;1.65;0.95;;;8.60;99.90;;;;;;5076268;28;20035;-73
2021/05/04 03:11:42;;;;;;;1.83;1.10;;;8.60;99.90;;;;;;5076076;28;20036;-77
2021/05/04 03:14:08;;;;;;;2.70;0.85;;;8.60;99.90;;;;;;5075803;28;20024;-76
2021/05/04 03:16:33;;;;;;;6.97;0.47;;;8.60;99.90;;;;;;5075599;28;20040;-76
2021/05/04 03:18:59;;;;;;;2.15;0.50;;;8.50;99.90;;;;;;5075975;28;20017;-76
2021/05/04 03:21:29;;;;;;;1.38;0.73;;;8.50;99.90;;;;;;5057536;28;20031;-76
2021/05/04 03:23:54;;;;;;;3.33;0.90;;;8.90;99.90;;;;;;5057513;28;20385;-77
2021/05/04 03:26:20;;;;;;;0.75;0.35;;;8.60;99.90;;;;;;5070134;28;20021;-77
2021/05/04 03:28:45;;;;;;;3.92;0.50;;;8.50;99.90;;;;;;5055623;28;20078;-77
2021/05/04 03:31:11;;;;;;;0.75;0.40;;;8.60;99.90;;;;;;5070727;28;20481;-77
2021/05/04 03:33:36;;;;;;;3.70;0.60;;;8.70;99.90;;;;;;5068307;28;20056;-77
2021/05/04 03:36:02;;;;;;;1.63;0.57;;;8.70;99.90;;;;;;5072093;28;20027;-76
2021/05/04 03:38:27;;;;;;;1.20;0.57;;;8.70;99.90;;;;;;5075148;28;20017;-77
2021/05/04 03:40:53;;;;;;;1.17;0.95;;;8.80;99.90;;;;;;5075109;28;20040;-77
2021/05/04 03:43:19;;;;;;;2.22;0.20;;;8.70;99.90;;;;;;5057348;28;20477;-77
2021/05/04 03:45:44;;;;;;;1.80;0.30;;;8.70;99.90;;;;;;5056973;28;20033;-77
2021/05/04 03:48:10;;;;;;;1.67;0.60;;;8.80;99.90;;;;;;5057252;28;20037;-77
2021/05/04 03:50:35;;;;;;;1.52;0.20;;;8.80;99.90;;;;;;5057268;28;20029;-77
2021/05/04 03:53:01;;;;;;;1.15;0.57;;;8.80;99.90;;;;;;5075996;28;20024;-74
2021/05/04 03:55:27;;;;;;;1.30;0.40;;;8.80;99.90;;;;;;5046486;28;20504;-74
2021/05/04 03:57:53;;;;;;;1.30;0.60;;;8.80;99.90;;;;;;5055176;28;20040;-74
2021/05/04 04:00:20;;;;;;;0.65;0.35;;;8.80;99.90;;;;;;5071249;28;20052;-74
2021/05/04 04:02:46;;;;;;;0.30;0.22;;;8.90;99.90;;;;;;5057102;28;20041;-74
2021/05/04 04:05:12;;;;;;;1.40;0.52;;;8.90;99.90;;;;;;5066662;28;20031;-74
2021/05/04 04:07:38;;;;;;;1.42;0.35;;;8.80;99.90;;;;;;5055427;28;20119;-74
2021/05/04 04:10:05;;;;;;;3.55;0.20;;;8.90;99.90;;;;;;5062401;28;20017;-74
2021/05/04 04:12:31;;;;;;;2.92;0.10;;;8.90;99.90;;;;;;5074414;28;20025;-74
2021/05/04 04:14:56;;;;;;;1.42;0.30;;;8.90;99.90;;;;;;5056403;28;20473;-74
2021/05/04 04:17:22;;;;;;;1.88;0.30;;;8.90;99.90;;;;;;5074784;28;20500;-74
2021/05/04 04:19:48;;;;;;;0.80;0.40;;;8.90;99.90;;;;;;5063352;28;20044;-74
2021/05/04 04:22:13;;;;;;;3.60;0.35;;;8.90;99.90;;;;;;5054920;28;20047;-74
2021/05/04 04:24:39;;;;;;;2.63;0.30;;;8.80;99.90;;;;;;5056373;28;20127;-74
2021/05/04 04:27:05;;;;;;;1.48;0.60;;;8.90;99.90;;;;;;5056258;28;20027;-75
2021/05/04 04:29:32;;;;;;;5.80;0.77;;;8.80;99.90;;;;;;5056793;28;20036;-74
2021/05/04 04:31:58;;;;;;;3.40;0.15;;;8.80;99.90;;;;;;5074605;28;20108;-74
2021/05/04 04:34:23;;;;;;;3.60;0.90;;;8.80;99.90;;;;;;5091064;22;20463;-74
2021/05/04 04:36:49;;;;;;;3.28;0.60;;;8.90;99.90;;;;;;5095221;28;20098;-74
2021/05/04 04:39:14;;;;;;;3.25;0.30;;;8.90;99.90;;;;;;5076043;28;20058;-73
2021/05/04 04:41:41;;;;;;;4.20;1.02;;;8.90;99.90;;;;;;5085144;28;20108;-73
2021/05/04 04:44:08;;;;;;;1.08;0.17;;;9.00;99.90;;;;;;5065143;28;20025;-73
2021/05/04 04:46:41;;;;;;;2.50;0.40;;;8.90;99.90;;;;;;5056620;28;20542;-73
2021/05/04 04:49:08;;;;;;;4.30;0.40;;;8.90;99.90;;;;;;5058032;28;20091;-73
2021/05/04 04:51:34;;;;;;;1.70;0.20;;;8.90;99.90;;;;;;5073157;28;20482;-72
2021/05/04 04:53:59;;;;;;;1.80;0.70;;;8.90;99.90;;;;;;5074070;28;20024;-73
2021/05/04 04:56:25;;;;;;;4.53;0.63;;;8.80;99.90;;;;;;5073688;28;20548;-73
2021/05/04 04:58:50;;;;;;;0.52;0.30;;;8.80;99.90;;;;;;5091482;28;20024;-72
2021/05/04 05:01:16;;;;;;;1.20;0.43;;;8.80;99.90;;;;;;5060519;28;20383;-73
2021/05/04 05:03:41;;;;;;;0.25;0.13;;;8.70;99.90;;;;;;5087057;22;20036;-73
2021/05/04 05:06:07;;;;;;;1.30;0.30;;;8.70;99.90;;;;;;5074503;28;20032;-73
2021/05/04 05:11:00;;;;;;;6.55;0.47;;;8.80;99.90;;;;;;5052320;28;20048;-73
2021/05/04 05:13:26;;;;;;;2.80;0.68;;;8.90;99.90;;;;;;5036225;28;20017;-76
2021/05/04 05:15:51;;;;;;;4.82;0.47;;;9.20;99.90;;;;;;5035852;28;20033;-73
2021/05/04 05:18:17;;;;;;;3.25;0.28;;;9.00;99.90;;;;;;5053828;28;20479;-72
2021/05/04 05:20:42;;;;;;;4.60;0.43;;;9.00;99.90;;;;;;5053771;28;20017;-72
2021/05/04 05:23:08;;;;;;;6.80;0.38;;;9.00;99.90;;;;;;5053734;28;20470;-72
2021/05/04 05:25:35;;;;;;;7.63;0.52;;;9.00;99.90;;;;;;5053803;28;20094;-72
2021/05/04 05:28:00;;;;;;;2.17;0.40;;;9.10;99.90;;;;;;5053614;28;20040;-72
2021/05/04 05:30:26;;;;;;;6.07;0.90;;;9.20;99.90;;;;;;5035939;28;20029;-72
2021/05/04 05:32:52;;;;;;;9.77;0.55;;;9.20;99.90;;;;;;5053484;28;20402;-72
2021/05/04 05:35:17;;;;;;;2.10;0.20;;;9.20;99.90;;;;;;5035286;28;20017;-72
2021/05/04 05:37:43;;;;;;;2.38;0.00;;;9.40;99.90;;;;;;5053278;28;20485;-72
2021/05/04 05:40:09;;;;;;;7.05;0.55;;;9.40;99.90;;;;;;5052978;28;20025;-72
2021/05/04 05:42:34;;;;;;;7.53;1.25;;;9.50;99.90;;;;;;5035405;28;20025;-72
2021/05/04 05:45:00;;;;;;;6.20;0.10;;;9.50;99.90;;;;;;5035276;28;20190;-72
2021/05/04 05:47:26;;;;;;;1.20;0.10;;;9.50;99.90;;;;;;5052948;28;20112;-72
2021/05/04 05:49:51;;;;;;;4.70;0.10;;;9.50;99.90;;;;;;5053314;28;20028;-73
2021/05/04 05:52:17;;;;;;;7.72;0.52;;;9.60;99.90;;;;;;5035643;28;20075;-76
2021/05/04 05:54:42;;;;;;;4.70;0.43;;;9.60;99.90;;;;;;5053558;28;20029;-74
2021/05/04 05:57:08;;;;;;;5.43;0.52;;;9.70;99.90;;;;;;5053204;28;20037;-73
2021/05/04 05:59:34;;;;;;;7.13;0.10;;;9.70;99.90;;;;;;5035278;28;20053;-77
2021/05/04 06:01:59;;;;;;;5.10;0.00;;;9.60;99.90;;;;;;5053373;28;20025;-76
2021/05/04 06:04:25;;;;;;;9.82;0.70;;;9.60;99.90;;;;;;5038739;28;20074;-72
2021/05/04 06:06:50;;;;;;;4.78;0.45;;;9.60;99.90;;;;;;5039403;28;20017;-74
2021/05/04 06:09:16;;;;;;;4.93;0.10;;;9.50;99.90;;;;;;5057202;28;20041;-73
2021/05/04 06:11:41;;;;;;;7.72;0.75;;;9.50;99.90;;;;;;5057722;28;20386;-73
2021/05/04 06:14:07;;;;;;;2.33;0.10;;;9.50;99.90;;;;;;5056796;28;20083;-76
2021/05/04 06:16:33;;;;;;;5.93;0.20;;;9.40;99.90;;;;;;5057758;28;20025;-73
2021/05/04 06:18:58;;;;;;;7.85;1.05;;;9.50;99.90;;;;;;5057291;28;20021;-72
2021/05/04 06:21:24;;;;;;;3.58;0.13;;;9.50;99.90;;;;;;5039141;28;20021;-74
2021/05/04 06:23:51;;;;;;;9.45;1.08;;;9.60;99.90;;;;;;5039069;28;20505;-73
2021/05/04 06:26:18;;;;;;;5.18;1.05;;;9.70;99.90;;;;;;5056455;28;20537;-72
2021/05/04 06:28:48;;;;;;;11.65;1.85;;;9.90;99.90;;;;;;5057029;28;20104;-73
2021/05/04 06:31:17;;;;;;;4.72;0.35;;;9.90;99.90;;;;;;5037975;28;20494;-72
2021/05/04 06:33:43;;;;;;;8.15;0.95;;;9.90;99.90;;;;;;5056911;28;20031;-73
2021/05/04 06:36:10;;;;;;;5.88;0.50;;;10.00;99.90;;;;;;5056913;28;20456;-72
2021/05/04 06:38:36;;;;;;;5.35;0.25;;;10.00;99.90;;;;;;5082702;22;20450;-73
2021/05/04 06:41:02;;;;;;;12.63;0.50;;;10.00;99.90;;;;;;5078894;28;20441;-73
2021/05/04 06:43:28;;;;;;;11.25;1.58;;;10.00;99.90;;;;;;5097225;28;20027;-73
2021/05/04 06:45:55;;;;;;;7.03;0.93;;;9.90;99.90;;;;;;5079127;28;20028;-73
2021/05/04 06:48:20;;;;;;;15.40;1.05;;;9.90;99.90;;;;;;5096498;28;20027;-72
2021/05/04 06:50:46;;;;;;;6.40;0.50;;;9.90;99.90;;;;;;5096784;28;20466;-73
2021/05/04 06:53:11;;;;;;;10.93;1.30;;;9.90;99.90;;;;;;5097677;28;20081;-72
2021/05/04 06:55:37;;;;;;;6.47;0.20;;;9.90;99.90;;;;;;5095686;28;20034;-72
2021/05/04 06:58:03;;;;;;;11.32;0.40;;;9.90;99.90;;;;;;5096684;28;20537;-72
2021/05/04 07:00:28;;;;;;;7.13;0.68;;;9.90;99.90;;;;;;5097124;28;20020;-73
2021/05/04 07:02:54;;;;;;;8.30;0.65;;;10.00;99.90;;;;;;5078905;28;20012;-74
2021/05/04 07:05:20;;;;;;;12.10;0.52;;;10.00;99.90;;;;;;5099536;22;20052;-73
2021/05/04 07:07:46;;;;;;;19.55;2.15;;;10.00;99.90;;;;;;5076344;28;20020;-73
2021/05/04 07:10:12;;;;;;;16.88;1.63;;;10.10;99.90;;;;;;5076414;28;20029;-74
2021/05/04 07:12:38;;;;;;;6.38;0.50;;;10.10;99.90;;;;;;5057939;28;20069;-72
2021/05/04 07:15:04;;;;;;;26.75;2.72;;;10.00;99.90;;;;;;5057503;28;20020;-72
2021/05/04 07:17:30;;;;;;;15.52;1.00;;;10.10;99.90;;;;;;5058034;28;20033;-72
2021/05/04 07:19:56;;;;;;;14.38;0.93;;;10.20;99.90;;;;;;5076347;28;20023;-72
2021/05/04 07:22:25;;;;;;;17.88;1.85;;;10.20;99.90;;;;;;5058069;28;20031;-73
2021/05/04 07:24:51;;;;;;;21.45;1.48;;;10.20;99.90;;;;;;5058480;28;20016;-73
2021/05/04 07:27:16;;;;;;;14.43;1.05;;;10.10;99.90;;;;;;5098645;22;20385;-72
2021/05/04 07:29:42;;;;;;;14.38;2.75;;;10.00;99.90;;;;;;5096178;28;20020;-73
2021/05/04 07:32:07;;;;;;;13.23;1.15;;;10.00;99.90;;;;;;5096546;28;20031;-72
2021/05/04 07:34:33;;;;;;;14.98;1.25;;;10.00;99.90;;;;;;5078111;28;20020;-74
2021/05/04 07:36:59;;;;;;;13.75;0.63;;;10.00;99.90;;;;;;5096127;28;20016;-74
2021/05/04 07:39:24;;;;;;;17.35;1.58;;;10.10;99.90;;;;;;5079938;22;20509;-73
2021/05/04 07:41:50;;;;;;;10.90;0.50;;;10.20;99.90;;;;;;5071121;28;20054;-75
2021/05/04 07:44:15;;;;;;;13.18;1.10;;;11.50;99.90;;;;;;5055210;28;20025;-73
2021/05/04 07:46:41;;;;;;;12.68;1.17;;;10.30;99.90;;;;;;5054210;28;20025;-75
2021/05/04 07:49:11;;;;;;;19.52;1.15;;;10.20;99.90;;;;;;5052148;28;20027;-74
2021/05/04 07:51:37;;;;;;;13.52;1.05;;;10.10;99.90;;;;;;5062303;28;20362;-73
2021/05/04 07:54:03;;;;;;;6.97;1.05;;;10.10;99.90;;;;;;5071736;23;20032;-75
2021/05/04 07:56:28;;;;;;;12.23;1.02;;;10.20;99.90;;;;;;5058420;28;20036;-76
2021/05/04 07:58:54;;;;;;;12.88;0.60;;;10.30;99.90;;;;;;5108904;22;20062;-74
2021/05/04 08:01:19;;;;;;;11.20;1.23;;;10.40;99.90;;;;;;5096292;28;20024;-73
2021/05/04 08:03:45;;;;;;;12.50;0.93;;;10.30;99.90;;;;;;5095885;28;20138;-74
2021/05/04 08:06:10;;;;;;;10.77;0.60;;;10.10;99.90;;;;;;5095048;28;20033;-73
2021/05/04 08:08:36;;;;;;;13.50;2.08;;;10.00;99.90;;;;;;5096271;28;20024;-75
2021/05/04 08:11:02;;;;;;;9.88;1.42;;;10.00;99.90;;;;;;5094249;22;20494;-72
2021/05/04 08:13:30;;;;;;;16.40;3.58;;;9.90;99.90;;;;;;5070648;28;20029;-73
2021/05/04 08:15:56;;;;;;;11.55;1.05;;;9.90;99.90;;;;;;5075374;28;20554;-73
2021/05/04 08:18:22;;;;;;;18.42;1.27;;;9.70;99.90;;;;;;5075762;28;20017;-75
2021/05/04 08:20:54;;;;;;;9.05;1.70;;;9.70;99.90;;;;;;5075004;28;20440;-74
2021/05/04 08:23:24;;;;;;;16.15;2.08;;;9.80;99.90;;;;;;5043447;28;20032;-73
2021/05/04 08:25:49;;;;;;;12.82;1.13;;;10.00;99.90;;;;;;5070993;22;20214;-72
2021/05/04 08:28:15;;;;;;;13.13;1.65;;;10.10;99.90;;;;;;5075028;28;20536;-72
2021/05/04 08:30:40;;;;;;;12.98;0.47;;;10.10;99.90;;;;;;5079456;28;20016;-73
2021/05/04 08:33:06;;;;;;;9.00;1.40;;;10.10;99.90;;;;;;5094862;28;20098;-73
2021/05/04 08:35:32;;;;;;;18.15;2.40;;;10.00;99.90;;;;;;5094705;28;20065;-73
2021/05/04 08:37:57;;;;;;;8.90;1.15;;;10.10;99.90;;;;;;5094824;28;20020;-73
2021/05/04 08:40:24;;;;;;;11.77;1.15;;;10.10;99.90;;;;;;5094830;28;20020;-73
2021/05/04 08:42:50;;;;;;;13.23;1.35;;;10.20;99.90;;;;;;5083671;28;20016;-73
2021/05/04 08:45:17;;;;;;;4.88;0.38;;;10.40;99.90;;;;;;5074694;28;20021;-73
2021/05/04 08:47:44;;;;;;;9.93;0.40;;;10.40;99.90;;;;;;5074900;28;20095;-73
2021/05/04 08:50:13;;;;;;;4.93;0.00;;;10.40;99.90;;;;;;5076569;28;20024;-73
2021/05/04 08:52:38;;;;;;;3.38;0.20;;;9.90;99.90;;;;;;5075871;28;20031;-72
2021/05/04 08:55:04;;;;;;;4.45;0.05;;;9.60;99.90;;;;;;5072253;28;20032;-72
2021/05/04 08:57:30;;;;;;;9.32;0.43;;;9.60;99.90;;;;;;5094344;28;20477;-73
2021/05/04 08:59:55;;;;;;;8.95;0.45;;;9.60;99.90;;;;;;5094641;28;20013;-72
2021/05/04 09:02:22;;;;;;;9.68;0.90;;;9.90;99.90;;;;;;5076654;28;20469;-73
2021/05/04 09:04:54;;;;;;;7.43;0.28;;;10.10;99.90;;;;;;5094030;28;20096;-73
2021/05/04 09:07:30;;;;;;;13.23;0.82;;;10.20;99.90;;;;;;5055015;28;20452;-72
2021/05/04 09:21:14;;;;;;;9.20;0.50;;;10.50;99.90;;;;;;5095095;28;20123;-73
2021/05/04 09:23:42;;;;;;;9.45;0.20;;;10.70;99.90;;;;;;5094456;28;20020;-72
2021/05/04 09:26:18;;;;;;;4.10;0.38;;;10.50;99.90;;;;;;5108381;22;20404;-72
2021/05/04 09:31:30;;;;;;;4.47;0.20;;;10.00;99.90;;;;;;5073260;28;20045;-72
2021/05/04 09:34:10;;;;;;;12.88;0.73;;;9.80;99.90;;;;;;5075102;28;20017;-72
2021/05/04 09:36:46;;;;;;;6.80;0.32;;;9.90;99.90;;;;;;5054430;28;20033;-72
2021/05/04 09:39:25;;;;;;;6.80;0.35;;;9.90;99.90;;;;;;5069342;22;20390;-75
2021/05/04 09:41:54;;;;;;;13.98;1.33;;;9.80;99.90;;;;;;5055508;28;20036;-75
2021/05/04 09:44:39;;;;;;;10.30;0.55;;;9.80;99.90;;;;;;5074635;28;20024;-73
2021/05/04 09:47:06;;;;;;;5.55;0.10;;;9.70;99.90;;;;;;5056020;28;20043;-72
2021/05/04 09:49:36;;;;;;;4.22;0.32;;;9.60;99.90;;;;;;5074158;28;20017;-73
2021/05/04 09:52:33;;;;;;;1.52;0.65;;;9.60;99.90;;;;;;5056573;28;20036;-72
2021/05/04 09:55:16;;;;;;;3.70;0.30;;;9.50;99.90;;;;;;5073927;28;20048;-74
2021/05/04 09:57:49;;;;;;;4.05;0.40;;;9.50;99.90;;;;;;5075108;28;20060;-72
2021/05/04 10:00:29;;;;;;;2.97;0.00;;;9.50;99.90;;;;;;5055869;28;20045;-74
2021/05/04 10:02:58;;;;;;;0.77;0.00;;;9.60;99.90;;;;;;5075132;28;20039;-75
2021/05/04 10:05:24;;;;;;;2.75;0.00;;;9.90;99.90;;;;;;5083830;22;20451;-74
2021/05/04 10:07:51;;;;;;;2.47;0.45;;;10.00;99.90;;;;;;5112772;22;20046;-73
2021/05/04 10:10:17;;;;;;;1.52;0.25;;;9.90;99.90;;;;;;5107222;22;20106;-74
2021/05/04 10:12:44;;;;;;;2.83;0.00;;;9.90;99.90;;;;;;5100182;28;20020;-73
2021/05/04 10:15:13;;;;;;;11.18;0.55;;;9.80;99.90;;;;;;5114651;28;20024;-73
2021/05/04 10:17:40;;;;;;;4.78;0.00;;;9.70;99.90;;;;;;5114623;28;20031;-74
2021/05/04 10:20:14;;;;;;;1.55;0.00;;;9.70;99.90;;;;;;5114512;28;20388;-73
2021/05/04 10:22:39;;;;;;;6.57;1.42;;;9.60;99.90;;;;;;5108718;22;20044;-73
2021/05/04 10:25:09;;;;;;;2.05;0.38;;;9.80;99.90;;;;;;5094383;28;20027;-73
2021/05/04 10:27:36;;;;;;;2.40;0.03;;;9.90;99.90;;;;;;5075973;28;20059;-73
2021/05/04 10:30:05;;;;;;;5.10;0.00;;;10.00;99.90;;;;;;5093784;28;20031;-73
2021/05/04 10:32:49;;;;;;;0.45;0.00;;;9.90;99.90;;;;;;5124177;22;20047;-75
2021/05/04 10:35:42;;;;;;;2.55;0.00;;;9.80;99.90;;;;;;5093907;28;20034;-72
2021/05/04 10:38:11;;;;;;;6.05;0.32;;;9.90;99.90;;;;;;5075506;28;20016;-73
2021/05/04 10:40:40;;;;;;;1.02;0.03;;;10.00;99.90;;;;;;5108776;28;20031;-72
2021/05/04 10:43:27;;;;;;;3.42;0.15;;;9.90;99.90;;;;;;5120558;22;20040;-73
2021/05/04 10:45:54;;;;;;;3.75;0.00;;;10.00;99.90;;;;;;5073663;28;20048;-73
2021/05/04 10:48:38;;;;;;;4.65;0.63;;;10.00;99.90;;;;;;5085776;22;20044;-74
2021/05/04 10:51:11;;;;;;;2.72;0.35;;;10.00;99.90;;;;;;5077053;28;20028;-75
2021/05/04 10:53:49;;;;;;;5.82;0.47;;;10.10;99.90;;;;;;5058867;28;20020;-74
2021/05/04 10:56:16;;;;;;;4.45;0.35;;;10.00;99.90;;;;;;5056810;28;20041;-75
2021/05/04 10:58:50;;;;;;;4.43;0.00;;;10.10;99.90;;;;;;5056940;28;20017;-75
2021/05/04 11:01:18;;;;;;;3.47;0.00;;;10.20;99.90;;;;;;5039212;28;20494;-74
2021/05/04 11:03:45;;;;;;;5.57;0.52;;;10.40;99.90;;;;;;5078918;23;20093;-76
2021/05/04 11:06:12;;;;;;;5.60;0.35;;;10.50;99.90;;;;;;5096972;28;20035;-75
2021/05/04 11:08:41;;;;;;;8.07;0.10;;;10.50;98.20;;;;;;5097013;28;20059;-74
2021/05/04 11:11:21;;;;;;;0.70;0.00;;;10.50;98.60;;;;;;5078506;28;20074;-75
2021/05/04 11:13:57;;;;;;;1.67;0.10;;;10.50;99.40;;;;;;5097053;28;20495;-73
2021/05/04 11:16:33;;;;;;;7.00;0.10;;;10.30;97.50;;;;;;5103100;28;20031;-74
2021/05/04 11:19:04;;;;;;;4.47;0.10;;;10.40;98.20;;;;;;5118124;22;20048;-75
2021/05/04 11:21:41;;;;;;;3.72;0.15;;;10.40;98.70;;;;;;5078389;28;20035;-74
2021/05/04 11:24:11;;;;;;;3.35;0.30;;;10.40;99.90;;;;;;5096258;28;20039;-72
2021/05/04 11:26:59;;;;;;;5.90;0.32;;;10.50;97.40;;;;;;5096278;28;20028;-73
2021/05/04 11:29:30;;;;;;;3.13;0.40;;;10.50;94.70;;;;;;5094920;28;20027;-75
2021/05/04 11:32:36;;;;;;;1.17;0.05;;;10.50;95.80;;;;;;5096915;28;20056;-76
2021/05/04 11:35:06;;;;;;;0.80;0.10;;;10.60;94.00;;;;;;5094471;28;20032;-73
2021/05/04 11:37:37;;;;;;;4.07;0.15;;;10.60;95.50;;;;;;5094860;28;20020;-74
2021/05/04 11:40:15;;;;;;;8.13;0.47;;;10.80;96.40;;;;;;5094797;28;20051;-73
2021/05/04 11:42:42;;;;;;;1.75;0.30;;;10.80;93.20;;;;;;5078029;28;20423;-72
2021/05/04 11:47:51;;;;;;;2.33;0.20;;;11.10;94.30;;;;;;5133337;22;20111;-73
2021/05/04 11:50:31;;;;;;;9.85;0.00;;;11.20;92.00;;;;;;5084270;28;20056;-74
2021/05/04 11:53:00;;;;;;;2.00;0.10;;;11.30;92.90;;;;;;5095644;28;20082;-73
2021/05/04 11:55:28;;;;;;;1.52;0.00;;;11.40;92.10;;;;;;5095806;28;20058;-73
2021/05/04 11:58:01;;;;;;;2.08;0.10;;;11.30;90.80;;;;;;5096526;28;20385;-72
2021/05/04 12:02:54;;;;;;;1.25;0.00;;;11.20;91.80;;;;;;5074322;28;20102;-75
2021/05/04 12:05:29;;;;;;;2.83;0.00;;;11.10;90.80;;;;;;5057692;28;20016;-75
2021/05/04 12:07:56;;;;;;;5.28;0.43;;;12.80;91.00;;;;;;5056958;28;20029;-73
2021/05/04 12:10:35;;;;;;;1.92;0.32;;;10.90;90.50;;;;;;5075394;28;20078;-74
2021/05/04 12:13:09;;;;;;;1.27;0.00;;;10.70;89.00;;;;;;5075305;28;20032;-73
2021/05/04 12:15:37;;;;;;;3.72;0.10;;;10.60;88.30;;;;;;5075703;28;20457;-74
2021/05/04 12:18:04;;;;;;;4.55;0.00;;;10.50;91.00;;;;;;5075639;28;20017;-73
2021/05/04 12:20:33;;;;;;;2.45;0.00;;;10.50;92.80;;;;;;5075175;28;20017;-72
2021/05/04 12:23:02;;;;;;;5.32;0.00;;;10.50;93.30;;;;;;5074814;28;20547;-74
2021/05/04 12:25:50;;;;;;;9.60;0.20;;;10.50;92.20;;;;;;5057171;28;20020;-76
2021/05/04 12:28:22;;;;;;;6.07;0.00;;;10.40;94.00;;;;;;5075325;28;20431;-73
2021/05/04 12:30:49;;;;;;;2.75;0.00;;;10.30;92.40;;;;;;5074858;28;20093;-72
2021/05/04 12:33:19;;;;;;;4.35;0.10;;;10.40;93.60;;;;;;5075114;28;20091;-74
2021/05/04 12:35:58;;;;;;;0.75;0.10;;;10.50;92.20;;;;;;5074565;28;20024;-73
2021/05/04 12:38:25;;;;;;;;;;;10.40;92.30;;;;;;5074957;28;20027;-72
2021/05/04 12:40:52;;;;;;;3.13;0.00;;;10.10;99.00;;;;;;5074288;28;19904;-72
2021/05/04 12:43:53;;;;;;;2.28;0.00;;;9.70;99.90;;;;;;5075543;28;20470;-74
2021/05/04 12:46:24;;;;;;;2.45;0.25;;;9.60;99.90;;;;;;5072777;28;20401;-72
2021/05/04 12:48:54;;;;;;;8.82;0.98;;;9.60;99.90;;;;;;5075063;28;20021;-73
2021/05/04 12:51:26;;;;;;;2.13;0.00;;;9.90;99.90;;;;;;5074859;28;20027;-73
2021/05/04 12:54:04;;;;;;;2.10;0.00;;;10.10;99.90;;;;;;5074456;28;20040;-74
2021/05/04 12:56:33;;;;;;;4.85;0.45;;;10.30;99.90;;;;;;5075167;28;20020;-74
2021/05/04 12:58:58;;;;;;;2.53;0.20;;;10.50;99.90;;;;;;5056591;28;20032;-74
2021/05/04 13:01:34;;;;;;;6.22;0.52;;;10.60;99.90;;;;;;5082555;28;20100;-74
2021/05/04 13:04:02;;;;;;;2.13;0.00;;;10.70;97.80;;;;;;5094779;28;20057;-72
2021/05/04 13:06:45;;;;;;;0.50;0.00;;;10.80;94.20;;;;;;5089587;22;20044;-73
2021/05/04 13:09:29;;;;;;;1.65;0.00;;;10.90;95.00;;;;;;5074375;28;20027;-73
2021/05/04 13:12:05;;;;;;;8.45;0.50;;;11.00;91.30;;;;;;5055442;28;20028;-74
2021/05/04 13:20:24;;;;;;;0.38;0.00;;;10.90;93.20;;;;;;5054362;28;19913;-74
2021/05/04 13:31:49;;;;;;;3.55;0.10;;;11.50;92.10;;;;;;5094128;28;20457;-74